sensor_id;sensor_type;location;lat;lon;timestamp;temperature;humidity
42617;DHT22;28250;52.320;0.360;2022-07-10T00:01:44;15.40;99.90
42617;DHT22;28250;52.320;0.360;2022-07-10T00:04:11;15.40;99.90
42617;DHT22;28250;52.320;0.360;2022-07-10T00:06:38;15.20;99.90
42617;DHT22;28250;52.320;0.360;2022-07-10T00:09:08;15.10;99.90
42617;DHT22;28250;52.320;0.360;2022-07-10T00:11:34;15.00;99.90
42617;DHT22;28250;52.320;0.360;2022-07-10T00:14:01;14.90;99.90
42617;DHT22;28250;52.320;0.360;2022-07-10T00:16:28;14.80;99.90
42617;DHT22;28250;52.320;0.360;2022-07-10T00:18:55;14.70;99.90
42617;DHT22;28250;52.320;0.360;2022-07-10T00:21:21;14.80;99.90
42617;DHT22;28250;52.320;0.360;2022-07-10T00:23:48;14.80;99.90
42617;DHT22;28250;52.320;0.360;2022-07-10T00:26:15;14.80;99.90
42617;DHT22;28250;52.320;0.360;2022-07-10T00:28:41;14.80;99.90
42617;DHT22;28250;52.320;0.360;2022-07-10T00:31:08;14.90;99.90
42617;DHT22;28250;52.320;0.360;2022-07-10T00:33:37;14.80;99.90
42617;DHT22;28250;52.320;0.360;2022-07-10T00:36:05;14.60;99.90
42617;DHT22;28250;52.320;0.360;2022-07-10T00:38:32;14.50;99.90
42617;DHT22;28250;52.320;0.360;2022-07-10T00:40:59;14.50;99.90
42617;DHT22;28250;52.320;0.360;2022-07-10T00:43:26;14.60;99.90
42617;DHT22;28250;52.320;0.360;2022-07-10T00:45:52;14.60;99.90
42617;DHT22;28250;52.320;0.360;2022-07-10T00:48:19;14.60;99.90
42617;DHT22;28250;52.320;0.360;2022-07-10T00:50:46;14.50;99.90
42617;DHT22;28250;52.320;0.360;2022-07-10T00:53:13;14.50;99.90
42617;DHT22;28250;52.320;0.360;2022-07-10T00:55:40;14.40;99.90
42617;DHT22;28250;52.320;0.360;2022-07-10T00:58:10;14.30;99.90
42617;DHT22;28250;52.320;0.360;2022-07-10T01:00:37;14.40;99.90
42617;DHT22;28250;52.320;0.360;2022-07-10T01:03:05;14.20;99.90
42617;DHT22;28250;52.320;0.360;2022-07-10T01:05:32;14.20;99.90
42617;DHT22;28250;52.320;0.360;2022-07-10T01:07:58;14.20;99.90
42617;DHT22;28250;52.320;0.360;2022-07-10T01:10:25;14.10;99.90
42617;DHT22;28250;52.320;0.360;2022-07-10T01:12:52;14.10;99.90
42617;DHT22;28250;52.320;0.360;2022-07-10T01:15:20;14.00;99.90
42617;DHT22;28250;52.320;0.360;2022-07-10T01:17:47;14.00;99.90
42617;DHT22;28250;52.320;0.360;2022-07-10T01:20:15;14.00;99.90
42617;DHT22;28250;52.320;0.360;2022-07-10T01:22:42;13.90;99.90
42617;DHT22;28250;52.320;0.360;2022-07-10T01:25:08;14.00;99.90
42617;DHT22;28250;52.320;0.360;2022-07-10T01:27:37;14.00;99.90
42617;DHT22;28250;52.320;0.360;2022-07-10T01:30:07;14.00;99.90
42617;DHT22;28250;52.320;0.360;2022-07-10T01:32:37;14.10;99.90
42617;DHT22;28250;52.320;0.360;2022-07-10T01:35:06;14.10;99.90
42617;DHT22;28250;52.320;0.360;2022-07-10T01:37:34;13.90;99.90
42617;DHT22;28250;52.320;0.360;2022-07-10T01:40:00;13.80;99.90
42617;DHT22;28250;52.320;0.360;2022-07-10T01:42:27;13.70;99.90
42617;DHT22;28250;52.320;0.360;2022-07-10T01:44:53;13.70;99.90
42617;DHT22;28250;52.320;0.360;2022-07-10T01:47:21;13.70;99.90
42617;DHT22;28250;52.320;0.360;2022-07-10T01:49:50;13.80;99.90
42617;DHT22;28250;52.320;0.360;2022-07-10T01:52:20;13.90;99.90
42617;DHT22;28250;52.320;0.360;2022-07-10T01:54:48;14.00;99.90
42617;DHT22;28250;52.320;0.360;2022-07-10T01:57:15;14.00;99.90
42617;DHT22;28250;52.320;0.360;2022-07-10T01:59:43;14.00;99.90
42617;DHT22;28250;52.320;0.360;2022-07-10T02:02:10;13.90;99.90
42617;DHT22;28250;52.320;0.360;2022-07-10T02:04:37;13.80;99.90
42617;DHT22;28250;52.320;0.360;2022-07-10T02:07:12;13.80;99.90
42617;DHT22;28250;52.320;0.360;2022-07-10T02:09:41;13.70;99.90
42617;DHT22;28250;52.320;0.360;2022-07-10T02:12:10;13.80;99.90
42617;DHT22;28250;52.320;0.360;2022-07-10T02:14:39;13.90;99.90
42617;DHT22;28250;52.320;0.360;2022-07-10T02:17:08;13.80;99.90
42617;DHT22;28250;52.320;0.360;2022-07-10T02:19:35;13.80;99.90
42617;DHT22;28250;52.320;0.360;2022-07-10T02:22:02;13.70;99.90
42617;DHT22;28250;52.320;0.360;2022-07-10T02:24:29;13.70;99.90
42617;DHT22;28250;52.320;0.360;2022-07-10T02:26:55;13.70;99.90
42617;DHT22;28250;52.320;0.360;2022-07-10T02:29:22;13.70;99.90
42617;DHT22;28250;52.320;0.360;2022-07-10T02:31:49;13.80;99.90
42617;DHT22;28250;52.320;0.360;2022-07-10T02:34:16;13.70;99.90
42617;DHT22;28250;52.320;0.360;2022-07-10T02:36:42;13.70;99.90
42617;DHT22;28250;52.320;0.360;2022-07-10T02:39:09;13.70;99.90
42617;DHT22;28250;52.320;0.360;2022-07-10T02:41:35;13.70;99.90
42617;DHT22;28250;52.320;0.360;2022-07-10T02:44:03;13.70;99.90
42617;DHT22;28250;52.320;0.360;2022-07-10T02:46:30;13.80;99.90
42617;DHT22;28250;52.320;0.360;2022-07-10T02:48:56;13.70;99.90
42617;DHT22;28250;52.320;0.360;2022-07-10T02:51:23;13.70;99.90
42617;DHT22;28250;52.320;0.360;2022-07-10T02:53:50;13.80;99.90
42617;DHT22;28250;52.320;0.360;2022-07-10T02:56:16;13.70;99.90
42617;DHT22;28250;52.320;0.360;2022-07-10T02:58:43;13.70;99.90
42617;DHT22;28250;52.320;0.360;2022-07-10T03:01:10;13.60;99.90
42617;DHT22;28250;52.320;0.360;2022-07-10T03:03:36;13.60;99.90
42617;DHT22;28250;52.320;0.360;2022-07-10T03:06:03;13.60;99.90
42617;DHT22;28250;52.320;0.360;2022-07-10T03:08:29;13.50;99.90
42617;DHT22;28250;52.320;0.360;2022-07-10T03:10:56;13.50;99.90
42617;DHT22;28250;52.320;0.360;2022-07-10T03:13:23;13.50;99.90
42617;DHT22;28250;52.320;0.360;2022-07-10T03:15:50;13.40;99.90
42617;DHT22;28250;52.320;0.360;2022-07-10T03:18:20;13.30;99.90
42617;DHT22;28250;52.320;0.360;2022-07-10T03:20:47;13.40;99.90
42617;DHT22;28250;52.320;0.360;2022-07-10T03:23:13;13.40;99.90
42617;DHT22;28250;52.320;0.360;2022-07-10T03:25:40;13.40;99.90
42617;DHT22;28250;52.320;0.360;2022-07-10T03:28:07;13.40;99.90
42617;DHT22;28250;52.320;0.360;2022-07-10T03:30:33;13.40;99.90
42617;DHT22;28250;52.320;0.360;2022-07-10T03:33:00;13.40;99.90
42617;DHT22;28250;52.320;0.360;2022-07-10T03:35:27;13.40;99.90
42617;DHT22;28250;52.320;0.360;2022-07-10T03:37:53;13.30;99.90
42617;DHT22;28250;52.320;0.360;2022-07-10T03:40:20;13.40;99.90
42617;DHT22;28250;52.320;0.360;2022-07-10T03:42:47;13.40;99.90
42617;DHT22;28250;52.320;0.360;2022-07-10T03:45:13;13.50;99.90
42617;DHT22;28250;52.320;0.360;2022-07-10T03:47:40;13.40;99.90
42617;DHT22;28250;52.320;0.360;2022-07-10T03:50:07;13.30;99.90
42617;DHT22;28250;52.320;0.360;2022-07-10T03:52:35;13.20;99.90
42617;DHT22;28250;52.320;0.360;2022-07-10T03:55:02;13.10;99.90
42617;DHT22;28250;52.320;0.360;2022-07-10T03:57:29;13.10;99.90
42617;DHT22;28250;52.320;0.360;2022-07-10T04:00:14;13.10;99.90
42617;DHT22;28250;52.320;0.360;2022-07-10T04:02:41;13.10;99.90
42617;DHT22;28250;52.320;0.360;2022-07-10T04:05:09;13.20;99.90
42617;DHT22;28250;52.320;0.360;2022-07-10T04:07:36;13.20;99.90
42617;DHT22;28250;52.320;0.360;2022-07-10T04:10:03;13.20;99.90
42617;DHT22;28250;52.320;0.360;2022-07-10T04:12:30;13.20;99.90
42617;DHT22;28250;52.320;0.360;2022-07-10T04:14:57;13.30;99.90
42617;DHT22;28250;52.320;0.360;2022-07-10T04:17:23;13.30;99.90
42617;DHT22;28250;52.320;0.360;2022-07-10T04:19:50;13.20;99.90
42617;DHT22;28250;52.320;0.360;2022-07-10T04:22:17;13.30;99.90
42617;DHT22;28250;52.320;0.360;2022-07-10T04:24:43;13.40;99.90
42617;DHT22;28250;52.320;0.360;2022-07-10T04:27:10;13.30;99.90
42617;DHT22;28250;52.320;0.360;2022-07-10T04:29:37;13.30;99.90
42617;DHT22;28250;52.320;0.360;2022-07-10T04:32:04;13.30;99.90
42617;DHT22;28250;52.320;0.360;2022-07-10T04:34:31;13.30;99.90
42617;DHT22;28250;52.320;0.360;2022-07-10T04:36:57;13.30;99.90
42617;DHT22;28250;52.320;0.360;2022-07-10T04:39:24;13.40;99.90
42617;DHT22;28250;52.320;0.360;2022-07-10T04:41:51;13.50;99.90
42617;DHT22;28250;52.320;0.360;2022-07-10T04:44:18;13.40;99.90
42617;DHT22;28250;52.320;0.360;2022-07-10T04:46:45;13.60;99.90
42617;DHT22;28250;52.320;0.360;2022-07-10T04:49:11;13.50;99.90
42617;DHT22;28250;52.320;0.360;2022-07-10T04:51:38;13.50;99.90
42617;DHT22;28250;52.320;0.360;2022-07-10T04:54:05;13.50;99.90
42617;DHT22;28250;52.320;0.360;2022-07-10T04:56:31;13.50;99.90
42617;DHT22;28250;52.320;0.360;2022-07-10T04:58:58;13.60;99.90
42617;DHT22;28250;52.320;0.360;2022-07-10T05:01:25;13.60;99.90
42617;DHT22;28250;52.320;0.360;2022-07-10T05:03:51;13.50;99.90
42617;DHT22;28250;52.320;0.360;2022-07-10T05:06:18;13.50;99.90
42617;DHT22;28250;52.320;0.360;2022-07-10T05:08:45;13.60;99.90
42617;DHT22;28250;52.320;0.360;2022-07-10T05:11:12;13.60;99.90
42617;DHT22;28250;52.320;0.360;2022-07-10T05:13:38;13.70;99.90
42617;DHT22;28250;52.320;0.360;2022-07-10T05:16:05;13.70;99.90
42617;DHT22;28250;52.320;0.360;2022-07-10T05:18:32;13.80;99.90
42617;DHT22;28250;52.320;0.360;2022-07-10T05:20:59;13.80;99.90
42617;DHT22;28250;52.320;0.360;2022-07-10T05:23:25;13.80;99.90
42617;DHT22;28250;52.320;0.360;2022-07-10T05:25:52;14.00;99.90
42617;DHT22;28250;52.320;0.360;2022-07-10T05:28:18;13.90;99.90
42617;DHT22;28250;52.320;0.360;2022-07-10T05:30:45;14.00;99.90
42617;DHT22;28250;52.320;0.360;2022-07-10T05:33:12;14.10;99.90
42617;DHT22;28250;52.320;0.360;2022-07-10T05:35:38;14.20;99.90
42617;DHT22;28250;52.320;0.360;2022-07-10T05:38:05;14.20;99.90
42617;DHT22;28250;52.320;0.360;2022-07-10T05:40:32;14.20;99.90
42617;DHT22;28250;52.320;0.360;2022-07-10T05:42:59;14.40;99.90
42617;DHT22;28250;52.320;0.360;2022-07-10T05:45:25;14.50;99.90
42617;DHT22;28250;52.320;0.360;2022-07-10T05:47:52;14.50;99.90
42617;DHT22;28250;52.320;0.360;2022-07-10T05:50:19;14.70;99.90
42617;DHT22;28250;52.320;0.360;2022-07-10T05:52:46;14.90;99.90
42617;DHT22;28250;52.320;0.360;2022-07-10T05:55:12;15.10;99.90
42617;DHT22;28250;52.320;0.360;2022-07-10T05:57:40;15.20;99.90
42617;DHT22;28250;52.320;0.360;2022-07-10T06:00:11;15.20;99.90
42617;DHT22;28250;52.320;0.360;2022-07-10T06:02:38;15.40;99.90
42617;DHT22;28250;52.320;0.360;2022-07-10T06:05:06;15.50;99.90
42617;DHT22;28250;52.320;0.360;2022-07-10T06:07:34;16.20;99.90
42617;DHT22;28250;52.320;0.360;2022-07-10T06:10:01;17.40;99.90
42617;DHT22;28250;52.320;0.360;2022-07-10T06:12:29;17.10;99.90
42617;DHT22;28250;52.320;0.360;2022-07-10T06:14:55;17.40;99.90
42617;DHT22;28250;52.320;0.360;2022-07-10T06:17:22;17.50;99.90
42617;DHT22;28250;52.320;0.360;2022-07-10T06:19:49;17.50;99.90
42617;DHT22;28250;52.320;0.360;2022-07-10T06:22:16;17.70;99.90
42617;DHT22;28250;52.320;0.360;2022-07-10T06:25:04;17.80;99.90
42617;DHT22;28250;52.320;0.360;2022-07-10T06:27:33;18.40;99.90
42617;DHT22;28250;52.320;0.360;2022-07-10T06:30:01;18.80;99.90
42617;DHT22;28250;52.320;0.360;2022-07-10T06:32:28;19.50;99.90
42617;DHT22;28250;52.320;0.360;2022-07-10T06:34:55;20.00;99.90
42617;DHT22;28250;52.320;0.360;2022-07-10T06:37:21;21.60;99.90
42617;DHT22;28250;52.320;0.360;2022-07-10T06:39:48;22.20;99.90
42617;DHT22;28250;52.320;0.360;2022-07-10T06:42:16;23.00;99.90
42617;DHT22;28250;52.320;0.360;2022-07-10T06:44:47;24.00;99.90
42617;DHT22;28250;52.320;0.360;2022-07-10T06:47:16;24.20;99.90
42617;DHT22;28250;52.320;0.360;2022-07-10T06:50:04;23.20;99.90
42617;DHT22;28250;52.320;0.360;2022-07-10T06:52:33;23.20;99.90
42617;DHT22;28250;52.320;0.360;2022-07-10T06:55:02;23.70;99.90
42617;DHT22;28250;52.320;0.360;2022-07-10T06:57:29;24.60;99.90
42617;DHT22;28250;52.320;0.360;2022-07-10T06:59:56;24.10;99.90
42617;DHT22;28250;52.320;0.360;2022-07-10T07:02:23;23.30;99.90
42617;DHT22;28250;52.320;0.360;2022-07-10T07:04:49;23.30;99.90
42617;DHT22;28250;52.320;0.360;2022-07-10T07:07:16;24.30;99.90
42617;DHT22;28250;52.320;0.360;2022-07-10T07:09:43;24.90;99.90
42617;DHT22;28250;52.320;0.360;2022-07-10T07:12:10;25.60;99.90
42617;DHT22;28250;52.320;0.360;2022-07-10T07:14:37;25.00;99.90
42617;DHT22;28250;52.320;0.360;2022-07-10T07:17:04;25.20;99.90
42617;DHT22;28250;52.320;0.360;2022-07-10T07:19:35;25.30;99.90
42617;DHT22;28250;52.320;0.360;2022-07-10T07:22:21;25.80;99.90
42617;DHT22;28250;52.320;0.360;2022-07-10T07:25:07;24.70;99.90
42617;DHT22;28250;52.320;0.360;2022-07-10T07:27:35;23.00;99.90
42617;DHT22;28250;52.320;0.360;2022-07-10T07:30:04;24.90;99.90
42617;DHT22;28250;52.320;0.360;2022-07-10T07:32:33;24.90;99.90
42617;DHT22;28250;52.320;0.360;2022-07-10T07:35:00;23.70;99.90
42617;DHT22;28250;52.320;0.360;2022-07-10T07:40:15;22.90;99.90
42617;DHT22;28250;52.320;0.360;2022-07-10T07:42:46;24.90;99.90
42617;DHT22;28250;52.320;0.360;2022-07-10T07:45:13;25.10;99.90
42617;DHT22;28250;52.320;0.360;2022-07-10T07:50:15;22.70;99.90
42617;DHT22;28250;52.320;0.360;2022-07-10T07:52:44;22.80;99.90
42617;DHT22;28250;52.320;0.360;2022-07-10T07:55:13;25.70;99.90
42617;DHT22;28250;52.320;0.360;2022-07-10T07:57:41;25.40;99.90
42617;DHT22;28250;52.320;0.360;2022-07-10T08:00:10;24.50;99.90
42617;DHT22;28250;52.320;0.360;2022-07-10T08:02:40;24.40;99.90
42617;DHT22;28250;52.320;0.360;2022-07-10T08:05:07;24.20;99.90
42617;DHT22;28250;52.320;0.360;2022-07-10T08:07:44;25.20;99.90
42617;DHT22;28250;52.320;0.360;2022-07-10T08:10:16;24.30;99.90
42617;DHT22;28250;52.320;0.360;2022-07-10T08:12:45;25.30;99.90
42617;DHT22;28250;52.320;0.360;2022-07-10T08:15:15;25.50;99.90
42617;DHT22;28250;52.320;0.360;2022-07-10T08:17:43;24.90;99.90
42617;DHT22;28250;52.320;0.360;2022-07-10T08:20:13;24.00;99.90
42617;DHT22;28250;52.320;0.360;2022-07-10T08:22:41;24.90;99.90
42617;DHT22;28250;52.320;0.360;2022-07-10T08:25:09;24.10;99.90
42617;DHT22;28250;52.320;0.360;2022-07-10T08:27:37;23.70;99.90
42617;DHT22;28250;52.320;0.360;2022-07-10T08:30:05;24.40;99.90
42617;DHT22;28250;52.320;0.360;2022-07-10T08:32:32;23.60;99.90
42617;DHT22;28250;52.320;0.360;2022-07-10T08:34:59;23.80;99.90
42617;DHT22;28250;52.320;0.360;2022-07-10T08:37:25;24.90;99.90
42617;DHT22;28250;52.320;0.360;2022-07-10T08:39:52;24.10;99.90
42617;DHT22;28250;52.320;0.360;2022-07-10T08:42:19;23.70;99.90
42617;DHT22;28250;52.320;0.360;2022-07-10T08:44:47;24.20;99.90
42617;DHT22;28250;52.320;0.360;2022-07-10T08:47:13;24.90;99.90
42617;DHT22;28250;52.320;0.360;2022-07-10T08:49:46;25.40;99.90
42617;DHT22;28250;52.320;0.360;2022-07-10T08:55:06;23.50;99.90
42617;DHT22;28250;52.320;0.360;2022-07-10T08:57:34;23.70;99.90
42617;DHT22;28250;52.320;0.360;2022-07-10T09:00:02;24.40;99.90
42617;DHT22;28250;52.320;0.360;2022-07-10T09:02:29;24.10;99.90
42617;DHT22;28250;52.320;0.360;2022-07-10T09:04:56;23.40;99.90
42617;DHT22;28250;52.320;0.360;2022-07-10T09:07:23;23.60;99.90
42617;DHT22;28250;52.320;0.360;2022-07-10T09:09:52;23.50;99.90
42617;DHT22;28250;52.320;0.360;2022-07-10T09:12:21;23.50;99.90
42617;DHT22;28250;52.320;0.360;2022-07-10T09:14:48;23.00;99.90
42617;DHT22;28250;52.320;0.360;2022-07-10T09:17:16;24.10;99.90
42617;DHT22;28250;52.320;0.360;2022-07-10T09:19:44;24.70;99.90
42617;DHT22;28250;52.320;0.360;2022-07-10T09:22:12;24.70;99.90
42617;DHT22;28250;52.320;0.360;2022-07-10T09:24:44;24.20;99.90
42617;DHT22;28250;52.320;0.360;2022-07-10T09:27:14;23.70;99.90
42617;DHT22;28250;52.320;0.360;2022-07-10T09:30:00;24.40;99.90
42617;DHT22;28250;52.320;0.360;2022-07-10T09:32:27;24.50;99.90
42617;DHT22;28250;52.320;0.360;2022-07-10T09:34:54;25.20;99.90
42617;DHT22;28250;52.320;0.360;2022-07-10T09:37:41;24.90;99.90
42617;DHT22;28250;52.320;0.360;2022-07-10T09:40:08;25.50;99.90
42617;DHT22;28250;52.320;0.360;2022-07-10T09:42:38;25.40;99.90
42617;DHT22;28250;52.320;0.360;2022-07-10T09:47:39;24.60;99.90
42617;DHT22;28250;52.320;0.360;2022-07-10T09:53:00;24.80;99.90
42617;DHT22;28250;52.320;0.360;2022-07-10T09:55:31;25.10;99.90
42617;DHT22;28250;52.320;0.360;2022-07-10T09:58:01;25.40;99.90
42617;DHT22;28250;52.320;0.360;2022-07-10T10:00:33;25.70;99.90
42617;DHT22;28250;52.320;0.360;2022-07-10T10:03:04;25.60;99.90
42617;DHT22;28250;52.320;0.360;2022-07-10T10:08:17;25.80;99.90
42617;DHT22;28250;52.320;0.360;2022-07-10T10:10:48;26.20;99.90
42617;DHT22;28250;52.320;0.360;2022-07-10T10:13:19;26.40;99.90
42617;DHT22;28250;52.320;0.360;2022-07-10T10:15:54;26.50;99.90
42617;DHT22;28250;52.320;0.360;2022-07-10T10:18:22;26.00;99.90
42617;DHT22;28250;52.320;0.360;2022-07-10T10:20:53;26.60;99.90
42617;DHT22;28250;52.320;0.360;2022-07-10T10:23:23;26.70;99.90
42617;DHT22;28250;52.320;0.360;2022-07-10T10:25:56;26.30;99.90
42617;DHT22;28250;52.320;0.360;2022-07-10T10:28:25;27.00;99.90
42617;DHT22;28250;52.320;0.360;2022-07-10T10:30:55;27.30;99.90
42617;DHT22;28250;52.320;0.360;2022-07-10T10:33:43;26.50;99.90
42617;DHT22;28250;52.320;0.360;2022-07-10T10:36:14;26.90;99.90
42617;DHT22;28250;52.320;0.360;2022-07-10T10:41:38;27.30;99.90
42617;DHT22;28250;52.320;0.360;2022-07-10T10:46:35;28.00;99.90
42617;DHT22;28250;52.320;0.360;2022-07-10T10:49:21;29.20;99.90
42617;DHT22;28250;52.320;0.360;2022-07-10T10:52:09;28.70;99.90
42617;DHT22;28250;52.320;0.360;2022-07-10T10:57:23;29.30;99.90
42617;DHT22;28250;52.320;0.360;2022-07-10T11:00:06;30.40;99.90
42617;DHT22;28250;52.320;0.360;2022-07-10T11:02:37;30.60;99.90
42617;DHT22;28250;52.320;0.360;2022-07-10T11:05:38;29.40;99.90
42617;DHT22;28250;52.320;0.360;2022-07-10T11:08:07;28.20;99.90
42617;DHT22;28250;52.320;0.360;2022-07-10T11:13:27;29.00;99.90
42617;DHT22;28250;52.320;0.360;2022-07-10T11:15:56;29.80;99.90
42617;DHT22;28250;52.320;0.360;2022-07-10T11:18:24;30.00;99.90
42617;DHT22;28250;52.320;0.360;2022-07-10T11:20:55;29.40;98.70
42617;DHT22;28250;52.320;0.360;2022-07-10T11:28:53;31.60;99.90
42617;DHT22;28250;52.320;0.360;2022-07-10T11:31:22;31.20;99.60
42617;DHT22;28250;52.320;0.360;2022-07-10T11:33:52;29.90;99.20
42617;DHT22;28250;52.320;0.360;2022-07-10T11:36:22;29.30;99.10
42617;DHT22;28250;52.320;0.360;2022-07-10T11:41:29;29.50;99.20
42617;DHT22;28250;52.320;0.360;2022-07-10T11:46:27;29.60;99.80
42617;DHT22;28250;52.320;0.360;2022-07-10T11:48:56;30.50;99.90
42617;DHT22;28250;52.320;0.360;2022-07-10T11:51:25;31.20;99.90
42617;DHT22;28250;52.320;0.360;2022-07-10T11:56:24;31.70;96.40
42617;DHT22;28250;52.320;0.360;2022-07-10T12:01:25;30.00;95.20
42617;DHT22;28250;52.320;0.360;2022-07-10T12:04:00;29.50;95.60
42617;DHT22;28250;52.320;0.360;2022-07-10T12:06:29;30.30;97.50
42617;DHT22;28250;52.320;0.360;2022-07-10T12:09:11;30.90;95.20
42617;DHT22;28250;52.320;0.360;2022-07-10T12:11:41;30.60;97.30
42617;DHT22;28250;52.320;0.360;2022-07-10T12:14:27;31.40;95.80
42617;DHT22;28250;52.320;0.360;2022-07-10T12:16:55;30.50;95.80
42617;DHT22;28250;52.320;0.360;2022-07-10T12:19:29;30.10;94.10
42617;DHT22;28250;52.320;0.360;2022-07-10T12:21:59;31.00;95.30
42617;DHT22;28250;52.320;0.360;2022-07-10T12:24:27;30.50;97.00
42617;DHT22;28250;52.320;0.360;2022-07-10T12:26:54;30.40;96.90
42617;DHT22;28250;52.320;0.360;2022-07-10T12:29:23;30.20;93.70
42617;DHT22;28250;52.320;0.360;2022-07-10T12:31:53;30.00;94.90
42617;DHT22;28250;52.320;0.360;2022-07-10T12:34:41;30.30;94.40
42617;DHT22;28250;52.320;0.360;2022-07-10T12:37:11;30.00;94.20
42617;DHT22;28250;52.320;0.360;2022-07-10T12:39:57;30.50;96.90
42617;DHT22;28250;52.320;0.360;2022-07-10T12:44:53;31.80;93.50
42617;DHT22;28250;52.320;0.360;2022-07-10T12:47:20;33.00;92.60
42617;DHT22;28250;52.320;0.360;2022-07-10T12:50:06;32.00;95.10
42617;DHT22;28250;52.320;0.360;2022-07-10T12:52:35;32.00;92.30
42617;DHT22;28250;52.320;0.360;2022-07-10T12:57:56;31.10;93.70
42617;DHT22;28250;52.320;0.360;2022-07-10T13:00:29;31.00;92.60
42617;DHT22;28250;52.320;0.360;2022-07-10T13:03:03;30.00;92.90
42617;DHT22;28250;52.320;0.360;2022-07-10T13:08:10;30.70;93.90
42617;DHT22;28250;52.320;0.360;2022-07-10T13:13:17;32.10;97.30
42617;DHT22;28250;52.320;0.360;2022-07-10T13:15:45;33.20;91.20
42617;DHT22;28250;52.320;0.360;2022-07-10T13:18:18;33.00;92.90
42617;DHT22;28250;52.320;0.360;2022-07-10T13:20:49;33.40;90.70
42617;DHT22;28250;52.320;0.360;2022-07-10T13:23:19;32.70;90.30
42617;DHT22;28250;52.320;0.360;2022-07-10T13:25:49;32.70;91.60
42617;DHT22;28250;52.320;0.360;2022-07-10T13:28:17;32.60;91.20
42617;DHT22;28250;52.320;0.360;2022-07-10T13:30:43;31.60;90.80
42617;DHT22;28250;52.320;0.360;2022-07-10T13:33:10;32.60;91.90
42617;DHT22;28250;52.320;0.360;2022-07-10T13:35:40;32.00;91.30
42617;DHT22;28250;52.320;0.360;2022-07-10T13:38:08;31.60;90.60
42617;DHT22;28250;52.320;0.360;2022-07-10T13:40:35;31.60;91.60
42617;DHT22;28250;52.320;0.360;2022-07-10T13:43:03;32.20;92.00
42617;DHT22;28250;52.320;0.360;2022-07-10T13:45:30;32.30;90.50
42617;DHT22;28250;52.320;0.360;2022-07-10T13:48:03;32.80;91.00
42617;DHT22;28250;52.320;0.360;2022-07-10T13:50:30;31.30;90.00
42617;DHT22;28250;52.320;0.360;2022-07-10T13:52:57;31.10;90.30
42617;DHT22;28250;52.320;0.360;2022-07-10T13:55:23;31.80;91.90
42617;DHT22;28250;52.320;0.360;2022-07-10T13:57:50;32.40;91.70
42617;DHT22;28250;52.320;0.360;2022-07-10T14:00:17;33.10;90.60
42617;DHT22;28250;52.320;0.360;2022-07-10T14:02:43;33.20;91.10
42617;DHT22;28250;52.320;0.360;2022-07-10T14:05:10;33.10;89.60
42617;DHT22;28250;52.320;0.360;2022-07-10T14:07:36;32.10;87.00
42617;DHT22;28250;52.320;0.360;2022-07-10T14:10:03;31.70;90.90
42617;DHT22;28250;52.320;0.360;2022-07-10T14:12:31;31.50;88.10
42617;DHT22;28250;52.320;0.360;2022-07-10T14:14:58;31.70;89.30
42617;DHT22;28250;52.320;0.360;2022-07-10T14:17:27;31.30;88.90
42617;DHT22;28250;52.320;0.360;2022-07-10T14:19:55;30.90;90.00
42617;DHT22;28250;52.320;0.360;2022-07-10T14:22:21;32.30;90.50
42617;DHT22;28250;52.320;0.360;2022-07-10T14:24:49;32.80;89.30
42617;DHT22;28250;52.320;0.360;2022-07-10T14:27:16;33.60;92.00
42617;DHT22;28250;52.320;0.360;2022-07-10T14:29:42;33.90;88.70
42617;DHT22;28250;52.320;0.360;2022-07-10T14:32:09;33.90;86.40
42617;DHT22;28250;52.320;0.360;2022-07-10T14:34:36;33.60;85.60
42617;DHT22;28250;52.320;0.360;2022-07-10T14:37:02;33.30;89.30
42617;DHT22;28250;52.320;0.360;2022-07-10T14:39:30;32.90;88.60
42617;DHT22;28250;52.320;0.360;2022-07-10T14:41:57;33.10;87.60
42617;DHT22;28250;52.320;0.360;2022-07-10T14:44:23;33.00;85.90
42617;DHT22;28250;52.320;0.360;2022-07-10T14:46:50;33.60;88.90
42617;DHT22;28250;52.320;0.360;2022-07-10T14:49:16;32.60;90.00
42617;DHT22;28250;52.320;0.360;2022-07-10T14:51:43;33.40;87.50
42617;DHT22;28250;52.320;0.360;2022-07-10T14:54:09;33.30;84.40
42617;DHT22;28250;52.320;0.360;2022-07-10T14:56:36;33.30;89.90
42617;DHT22;28250;52.320;0.360;2022-07-10T14:59:03;33.90;84.30
42617;DHT22;28250;52.320;0.360;2022-07-10T15:01:30;31.60;85.70
42617;DHT22;28250;52.320;0.360;2022-07-10T15:04:00;31.30;89.40
42617;DHT22;28250;52.320;0.360;2022-07-10T15:06:27;31.30;92.50
42617;DHT22;28250;52.320;0.360;2022-07-10T15:08:53;32.20;87.50
42617;DHT22;28250;52.320;0.360;2022-07-10T15:11:20;31.80;89.40
42617;DHT22;28250;52.320;0.360;2022-07-10T15:13:49;32.30;89.30
42617;DHT22;28250;52.320;0.360;2022-07-10T15:16:18;31.50;90.60
42617;DHT22;28250;52.320;0.360;2022-07-10T15:18:45;31.40;90.80
42617;DHT22;28250;52.320;0.360;2022-07-10T15:21:13;32.30;89.50
42617;DHT22;28250;52.320;0.360;2022-07-10T15:23:40;32.30;88.80
42617;DHT22;28250;52.320;0.360;2022-07-10T15:26:06;32.50;89.90
42617;DHT22;28250;52.320;0.360;2022-07-10T15:28:32;32.60;91.70
42617;DHT22;28250;52.320;0.360;2022-07-10T15:30:59;32.80;88.50
42617;DHT22;28250;52.320;0.360;2022-07-10T15:33:27;32.40;88.00
42617;DHT22;28250;52.320;0.360;2022-07-10T15:35:54;32.10;88.90
42617;DHT22;28250;52.320;0.360;2022-07-10T15:38:20;31.90;85.30
42617;DHT22;28250;52.320;0.360;2022-07-10T15:40:47;32.60;89.80
42617;DHT22;28250;52.320;0.360;2022-07-10T15:43:14;32.20;86.60
42617;DHT22;28250;52.320;0.360;2022-07-10T15:45:40;32.60;86.80
42617;DHT22;28250;52.320;0.360;2022-07-10T15:48:07;31.90;84.40
42617;DHT22;28250;52.320;0.360;2022-07-10T15:50:33;32.30;86.90
42617;DHT22;28250;52.320;0.360;2022-07-10T15:53:00;32.60;86.70
42617;DHT22;28250;52.320;0.360;2022-07-10T15:55:26;33.00;85.50
42617;DHT22;28250;52.320;0.360;2022-07-10T15:57:53;33.10;85.80
42617;DHT22;28250;52.320;0.360;2022-07-10T16:00:19;33.30;85.50
42617;DHT22;28250;52.320;0.360;2022-07-10T16:02:46;32.90;86.20
42617;DHT22;28250;52.320;0.360;2022-07-10T16:05:13;32.00;86.40
42617;DHT22;28250;52.320;0.360;2022-07-10T16:07:39;31.80;88.80
42617;DHT22;28250;52.320;0.360;2022-07-10T16:10:06;32.20;85.10
42617;DHT22;28250;52.320;0.360;2022-07-10T16:12:33;32.30;85.90
42617;DHT22;28250;52.320;0.360;2022-07-10T16:15:00;31.90;86.70
42617;DHT22;28250;52.320;0.360;2022-07-10T16:17:27;31.80;87.00
42617;DHT22;28250;52.320;0.360;2022-07-10T16:19:54;30.90;87.20
42617;DHT22;28250;52.320;0.360;2022-07-10T16:22:20;30.70;90.00
42617;DHT22;28250;52.320;0.360;2022-07-10T16:24:47;31.00;89.50
42617;DHT22;28250;52.320;0.360;2022-07-10T16:27:32;30.90;87.10
42617;DHT22;28250;52.320;0.360;2022-07-10T16:29:59;31.50;88.50
42617;DHT22;28250;52.320;0.360;2022-07-10T16:32:26;31.80;86.40